KFRG/FRG METAR and TAF weather

Enter ICAO airport designator
Station Type Date Time Source
KFRG METAR 2020/01/26 03:53 UTC NOAA

KFRG 260353Z AUTO 28008KT 10SM BKN015 07/04 A2977 RMK AO2 SLP082 T00670044


Station Type Date Time Source
KFRG Decoded METAR 2020/01/26 03:53 UTC NOAA

FARMINGDALE REPUBLIC AIRPORT , NY, United States (KFRG) 40-44N 073-25W 21M
Jan 25, 2020 - 10:53 PM EST / 2020.01.26 0353 UTC
Wind: from the W (280 degrees) at 9 MPH (8 KT):0
Visibility: 10 mile(s):0
Sky conditions: mostly cloudy
Temperature: 44.1 F (6.7 C)
Dew Point: 39.9 F (4.4 C)
Relative Humidity: 85%
Pressure (altimeter): 29.77 in. Hg (1008 hPa)
ob: KFRG 260353Z AUTO 28008KT 10SM BKN015 07/04 A2977 RMK AO2 SLP082 T00670044
cycle: 4

Station Type Date Time Source
KFRG TAF UTC NOAA

Error!

Example: see airport list